sensor_id;sensor_type;location;lat;lon;timestamp;P1;durP1;ratioP1;P2;durP2;ratioP2
80381;SDS011;69692;55.820;37.490;2023-04-25T14:05:16;7.20;;;2.72;;
80381;SDS011;69692;55.820;37.490;2023-04-25T14:07:42;5.57;;;2.65;;
80381;SDS011;69692;55.820;37.490;2023-04-25T14:10:08;4.63;;;3.00;;
80381;SDS011;69692;55.820;37.490;2023-04-25T14:12:34;6.75;;;3.50;;
80381;SDS011;69692;55.820;37.490;2023-04-25T14:15:00;7.15;;;2.78;;
80381;SDS011;69692;55.820;37.490;2023-04-25T14:17:25;8.25;;;4.05;;
80381;SDS011;69692;55.820;37.490;2023-04-25T14:19:51;6.30;;;4.32;;
80381;SDS011;69692;55.820;37.490;2023-04-25T14:22:16;7.95;;;3.92;;
80381;SDS011;69692;55.820;37.490;2023-04-25T14:24:42;5.85;;;3.80;;
80381;SDS011;69692;55.820;37.490;2023-04-25T14:27:08;4.43;;;3.25;;
80381;SDS011;69692;55.820;37.490;2023-04-25T14:29:33;6.07;;;4.15;;
80381;SDS011;69692;55.820;37.490;2023-04-25T14:31:59;6.07;;;3.92;;
80381;SDS011;69692;55.820;37.490;2023-04-25T14:34:25;7.47;;;2.97;;
80381;SDS011;69692;55.820;37.490;2023-04-25T14:36:51;7.00;;;3.03;;
80381;SDS011;69692;55.820;37.490;2023-04-25T14:39:17;6.22;;;3.80;;
80381;SDS011;69692;55.820;37.490;2023-04-25T14:41:43;5.90;;;3.22;;
80381;SDS011;69692;55.820;37.490;2023-04-25T14:44:09;6.07;;;2.95;;
80381;SDS011;69692;55.820;37.490;2023-04-25T14:46:35;6.60;;;2.80;;
80381;SDS011;69692;55.820;37.490;2023-04-25T14:49:01;5.07;;;3.40;;
80381;SDS011;69692;55.820;37.490;2023-04-25T14:51:26;6.30;;;3.90;;
80381;SDS011;69692;55.820;37.490;2023-04-25T14:53:52;6.55;;;3.20;;
80381;SDS011;69692;55.820;37.490;2023-04-25T14:56:18;5.95;;;3.85;;
80381;SDS011;69692;55.820;37.490;2023-04-25T14:58:43;4.70;;;3.40;;
80381;SDS011;69692;55.820;37.490;2023-04-25T15:01:10;4.95;;;3.28;;
80381;SDS011;69692;55.820;37.490;2023-04-25T15:03:38;5.65;;;3.85;;
80381;SDS011;69692;55.820;37.490;2023-04-25T15:06:05;6.28;;;4.40;;
80381;SDS011;69692;55.820;37.490;2023-04-25T15:08:31;10.00;;;4.07;;
80381;SDS011;69692;55.820;37.490;2023-04-25T15:10:58;5.18;;;3.28;;
80381;SDS011;69692;55.820;37.490;2023-04-25T15:13:23;7.53;;;3.67;;
80381;SDS011;69692;55.820;37.490;2023-04-25T15:15:49;7.97;;;3.60;;
80381;SDS011;69692;55.820;37.490;2023-04-25T15:18:19;6.13;;;3.42;;
80381;SDS011;69692;55.820;37.490;2023-04-25T15:20:47;8.48;;;3.67;;
80381;SDS011;69692;55.820;37.490;2023-04-25T15:23:13;5.63;;;3.53;;
80381;SDS011;69692;55.820;37.490;2023-04-25T15:25:38;4.57;;;2.92;;
80381;SDS011;69692;55.820;37.490;2023-04-25T15:28:04;9.00;;;4.43;;
80381;SDS011;69692;55.820;37.490;2023-04-25T15:30:30;6.65;;;3.85;;
80381;SDS011;69692;55.820;37.490;2023-04-25T15:32:55;4.68;;;3.15;;
80381;SDS011;69692;55.820;37.490;2023-04-25T15:35:21;6.72;;;3.25;;
80381;SDS011;69692;55.820;37.490;2023-04-25T15:37:46;5.63;;;3.42;;
80381;SDS011;69692;55.820;37.490;2023-04-25T15:40:15;6.10;;;3.17;;
80381;SDS011;69692;55.820;37.490;2023-04-25T15:42:42;7.80;;;3.47;;
80381;SDS011;69692;55.820;37.490;2023-04-25T15:45:09;6.45;;;3.40;;
80381;SDS011;69692;55.820;37.490;2023-04-25T15:47:35;3.83;;;2.85;;
80381;SDS011;69692;55.820;37.490;2023-04-25T15:50:02;4.88;;;2.97;;
80381;SDS011;69692;55.820;37.490;2023-04-25T15:52:29;10.93;;;3.40;;
80381;SDS011;69692;55.820;37.490;2023-04-25T15:54:55;3.70;;;2.67;;
80381;SDS011;69692;55.820;37.490;2023-04-25T15:57:21;4.43;;;3.05;;
80381;SDS011;69692;55.820;37.490;2023-04-25T15:59:47;6.05;;;3.08;;
80381;SDS011;69692;55.820;37.490;2023-04-25T16:02:13;5.05;;;3.33;;
80381;SDS011;69692;55.820;37.490;2023-04-25T16:04:39;6.63;;;2.90;;
80381;SDS011;69692;55.820;37.490;2023-04-25T16:07:04;13.88;;;3.85;;
80381;SDS011;69692;55.820;37.490;2023-04-25T16:09:31;7.35;;;3.78;;
80381;SDS011;69692;55.820;37.490;2023-04-25T16:11:57;6.80;;;4.22;;
80381;SDS011;69692;55.820;37.490;2023-04-25T16:14:23;6.32;;;4.22;;
80381;SDS011;69692;55.820;37.490;2023-04-25T16:16:49;7.85;;;3.67;;
80381;SDS011;69692;55.820;37.490;2023-04-25T16:19:14;10.48;;;3.72;;
80381;SDS011;69692;55.820;37.490;2023-04-25T16:21:40;5.85;;;3.50;;
80381;SDS011;69692;55.820;37.490;2023-04-25T16:24:06;7.15;;;4.72;;
80381;SDS011;69692;55.820;37.490;2023-04-25T16:26:32;7.63;;;3.70;;
80381;SDS011;69692;55.820;37.490;2023-04-25T16:28:58;7.40;;;3.70;;
80381;SDS011;69692;55.820;37.490;2023-04-25T16:31:24;8.70;;;3.60;;
80381;SDS011;69692;55.820;37.490;2023-04-25T16:33:50;8.25;;;3.72;;
80381;SDS011;69692;55.820;37.490;2023-04-25T16:36:15;9.90;;;4.45;;
80381;SDS011;69692;55.820;37.490;2023-04-25T16:38:41;7.35;;;3.50;;
80381;SDS011;69692;55.820;37.490;2023-04-25T16:41:07;6.43;;;4.20;;
80381;SDS011;69692;55.820;37.490;2023-04-25T16:43:32;5.57;;;3.00;;
80381;SDS011;69692;55.820;37.490;2023-04-25T16:45:58;13.82;;;3.67;;
80381;SDS011;69692;55.820;37.490;2023-04-25T16:48:24;6.95;;;3.65;;
80381;SDS011;69692;55.820;37.490;2023-04-25T16:50:50;7.00;;;4.70;;
80381;SDS011;69692;55.820;37.490;2023-04-25T16:53:17;7.97;;;4.07;;
80381;SDS011;69692;55.820;37.490;2023-04-25T16:55:43;6.57;;;3.55;;
80381;SDS011;69692;55.820;37.490;2023-04-25T16:58:08;6.57;;;4.03;;
80381;SDS011;69692;55.820;37.490;2023-04-25T17:00:36;7.38;;;4.40;;
80381;SDS011;69692;55.820;37.490;2023-04-25T17:03:02;6.82;;;3.50;;
80381;SDS011;69692;55.820;37.490;2023-04-25T17:05:28;7.03;;;3.90;;
80381;SDS011;69692;55.820;37.490;2023-04-25T17:07:54;11.60;;;5.40;;
80381;SDS011;69692;55.820;37.490;2023-04-25T17:10:21;6.22;;;3.72;;
80381;SDS011;69692;55.820;37.490;2023-04-25T17:12:47;8.00;;;4.40;;
80381;SDS011;69692;55.820;37.490;2023-04-25T17:15:12;10.32;;;3.67;;
80381;SDS011;69692;55.820;37.490;2023-04-25T17:17:38;7.32;;;4.00;;
80381;SDS011;69692;55.820;37.490;2023-04-25T17:20:04;8.20;;;4.68;;
80381;SDS011;69692;55.820;37.490;2023-04-25T17:22:32;12.43;;;4.13;;
80381;SDS011;69692;55.820;37.490;2023-04-25T17:24:59;15.35;;;5.18;;
80381;SDS011;69692;55.820;37.490;2023-04-25T17:27:24;14.32;;;4.60;;
80381;SDS011;69692;55.820;37.490;2023-04-25T17:29:50;6.80;;;4.07;;
80381;SDS011;69692;55.820;37.490;2023-04-25T17:32:15;16.33;;;5.03;;
80381;SDS011;69692;55.820;37.490;2023-04-25T17:34:41;9.27;;;3.90;;
80381;SDS011;69692;55.820;37.490;2023-04-25T17:37:07;11.77;;;4.53;;
80381;SDS011;69692;55.820;37.490;2023-04-25T17:39:39;7.20;;;4.63;;
80381;SDS011;69692;55.820;37.490;2023-04-25T17:42:05;10.25;;;3.95;;
80381;SDS011;69692;55.820;37.490;2023-04-25T17:44:31;10.02;;;4.70;;
80381;SDS011;69692;55.820;37.490;2023-04-25T17:46:56;9.50;;;4.38;;
80381;SDS011;69692;55.820;37.490;2023-04-25T17:49:22;8.20;;;3.53;;
80381;SDS011;69692;55.820;37.490;2023-04-25T17:51:48;8.63;;;4.75;;
80381;SDS011;69692;55.820;37.490;2023-04-25T17:54:13;14.27;;;4.47;;
80381;SDS011;69692;55.820;37.490;2023-04-25T17:56:39;7.90;;;3.60;;
80381;SDS011;69692;55.820;37.490;2023-04-25T17:59:05;7.13;;;3.47;;
80381;SDS011;69692;55.820;37.490;2023-04-25T18:01:31;12.95;;;4.38;;
80381;SDS011;69692;55.820;37.490;2023-04-25T18:03:56;11.93;;;4.07;;
80381;SDS011;69692;55.820;37.490;2023-04-25T18:06:22;10.10;;;3.65;;
80381;SDS011;69692;55.820;37.490;2023-04-25T18:08:48;5.57;;;3.55;;
80381;SDS011;69692;55.820;37.490;2023-04-25T18:11:13;6.22;;;3.80;;
80381;SDS011;69692;55.820;37.490;2023-04-25T18:13:39;7.60;;;4.03;;
80381;SDS011;69692;55.820;37.490;2023-04-25T18:16:05;6.13;;;3.33;;
80381;SDS011;69692;55.820;37.490;2023-04-25T18:18:31;5.43;;;2.75;;
80381;SDS011;69692;55.820;37.490;2023-04-25T18:20:58;6.80;;;2.80;;
80381;SDS011;69692;55.820;37.490;2023-04-25T18:23:25;11.23;;;3.55;;
80381;SDS011;69692;55.820;37.490;2023-04-25T18:25:51;4.05;;;3.30;;
80381;SDS011;69692;55.820;37.490;2023-04-25T18:28:18;5.43;;;2.75;;
80381;SDS011;69692;55.820;37.490;2023-04-25T18:30:43;6.03;;;3.33;;
80381;SDS011;69692;55.820;37.490;2023-04-25T18:33:11;5.63;;;3.40;;
80381;SDS011;69692;55.820;37.490;2023-04-25T18:35:36;4.53;;;3.10;;
80381;SDS011;69692;55.820;37.490;2023-04-25T18:38:02;6.90;;;3.60;;
80381;SDS011;69692;55.820;37.490;2023-04-25T18:40:28;7.95;;;3.38;;
80381;SDS011;69692;55.820;37.490;2023-04-25T18:42:53;7.45;;;4.25;;
80381;SDS011;69692;55.820;37.490;2023-04-25T18:45:19;8.68;;;3.92;;
80381;SDS011;69692;55.820;37.490;2023-04-25T18:47:45;7.68;;;3.40;;
80381;SDS011;69692;55.820;37.490;2023-04-25T18:50:11;9.95;;;4.15;;
80381;SDS011;69692;55.820;37.490;2023-04-25T18:52:37;7.90;;;3.90;;
80381;SDS011;69692;55.820;37.490;2023-04-25T18:55:03;5.68;;;3.58;;
80381;SDS011;69692;55.820;37.490;2023-04-25T18:57:29;6.97;;;4.03;;
80381;SDS011;69692;55.820;37.490;2023-04-25T18:59:54;6.20;;;3.67;;
80381;SDS011;69692;55.820;37.490;2023-04-25T19:02:20;9.73;;;5.22;;
80381;SDS011;69692;55.820;37.490;2023-04-25T19:04:46;7.82;;;4.72;;
80381;SDS011;69692;55.820;37.490;2023-04-25T19:08:11;9.55;;;5.78;;
80381;SDS011;69692;55.820;37.490;2023-04-25T19:10:36;9.48;;;4.43;;
80381;SDS011;69692;55.820;37.490;2023-04-25T19:13:02;9.10;;;5.03;;
80381;SDS011;69692;55.820;37.490;2023-04-25T19:15:28;9.70;;;3.83;;
80381;SDS011;69692;55.820;37.490;2023-04-25T19:17:54;9.25;;;4.72;;
80381;SDS011;69692;55.820;37.490;2023-04-25T19:20:20;7.53;;;5.28;;
80381;SDS011;69692;55.820;37.490;2023-04-25T19:22:46;9.55;;;4.93;;
80381;SDS011;69692;55.820;37.490;2023-04-25T19:25:12;9.10;;;4.95;;
80381;SDS011;69692;55.820;37.490;2023-04-25T19:27:38;9.55;;;4.60;;
80381;SDS011;69692;55.820;37.490;2023-04-25T19:30:04;13.13;;;5.38;;
80381;SDS011;69692;55.820;37.490;2023-04-25T19:32:33;8.05;;;4.55;;
80381;SDS011;69692;55.820;37.490;2023-04-25T19:35:00;11.38;;;4.03;;
80381;SDS011;69692;55.820;37.490;2023-04-25T19:37:28;6.47;;;4.30;;
80381;SDS011;69692;55.820;37.490;2023-04-25T19:39:54;7.22;;;4.78;;
80381;SDS011;69692;55.820;37.490;2023-04-25T19:42:20;8.05;;;3.75;;
80381;SDS011;69692;55.820;37.490;2023-04-25T19:44:49;6.13;;;4.70;;
80381;SDS011;69692;55.820;37.490;2023-04-25T19:47:15;10.68;;;4.53;;
80381;SDS011;69692;55.820;37.490;2023-04-25T19:49:41;10.43;;;4.90;;
80381;SDS011;69692;55.820;37.490;2023-04-25T19:52:07;7.88;;;4.78;;
80381;SDS011;69692;55.820;37.490;2023-04-25T19:54:38;6.05;;;4.22;;
80381;SDS011;69692;55.820;37.490;2023-04-25T19:57:04;8.95;;;4.13;;
80381;SDS011;69692;55.820;37.490;2023-04-25T19:59:29;6.80;;;4.38;;
80381;SDS011;69692;55.820;37.490;2023-04-25T20:01:55;7.05;;;4.15;;
80381;SDS011;69692;55.820;37.490;2023-04-25T20:04:21;9.60;;;5.20;;
80381;SDS011;69692;55.820;37.490;2023-04-25T20:06:47;7.80;;;4.30;;
80381;SDS011;69692;55.820;37.490;2023-04-25T20:09:13;6.85;;;4.45;;
80381;SDS011;69692;55.820;37.490;2023-04-25T20:11:38;7.32;;;4.15;;
80381;SDS011;69692;55.820;37.490;2023-04-25T20:14:04;8.75;;;4.50;;
80381;SDS011;69692;55.820;37.490;2023-04-25T20:16:30;9.75;;;3.90;;
80381;SDS011;69692;55.820;37.490;2023-04-25T20:18:56;6.70;;;4.50;;
80381;SDS011;69692;55.820;37.490;2023-04-25T20:21:22;8.98;;;4.03;;
80381;SDS011;69692;55.820;37.490;2023-04-25T20:23:48;8.77;;;3.70;;
80381;SDS011;69692;55.820;37.490;2023-04-25T20:26:14;5.03;;;3.67;;
80381;SDS011;69692;55.820;37.490;2023-04-25T20:28:40;7.45;;;2.90;;
80381;SDS011;69692;55.820;37.490;2023-04-25T20:31:08;4.07;;;2.80;;
80381;SDS011;69692;55.820;37.490;2023-04-25T20:33:35;9.55;;;3.25;;
80381;SDS011;69692;55.820;37.490;2023-04-25T20:36:03;5.35;;;3.05;;
80381;SDS011;69692;55.820;37.490;2023-04-25T20:38:29;5.80;;;2.70;;
80381;SDS011;69692;55.820;37.490;2023-04-25T20:40:55;8.90;;;3.85;;
80381;SDS011;69692;55.820;37.490;2023-04-25T20:43:21;7.07;;;3.50;;
80381;SDS011;69692;55.820;37.490;2023-04-25T20:45:49;4.45;;;3.08;;
80381;SDS011;69692;55.820;37.490;2023-04-25T20:48:15;6.22;;;3.28;;
80381;SDS011;69692;55.820;37.490;2023-04-25T20:50:41;5.97;;;2.92;;
80381;SDS011;69692;55.820;37.490;2023-04-25T20:53:07;5.90;;;2.92;;
80381;SDS011;69692;55.820;37.490;2023-04-25T20:55:33;6.88;;;3.22;;
80381;SDS011;69692;55.820;37.490;2023-04-25T20:57:59;7.00;;;3.33;;
80381;SDS011;69692;55.820;37.490;2023-04-25T21:00:25;7.00;;;3.47;;
80381;SDS011;69692;55.820;37.490;2023-04-25T21:02:53;4.85;;;3.10;;
80381;SDS011;69692;55.820;37.490;2023-04-25T21:05:20;5.10;;;3.50;;
80381;SDS011;69692;55.820;37.490;2023-04-25T21:07:47;7.95;;;3.58;;
80381;SDS011;69692;55.820;37.490;2023-04-25T21:10:13;6.07;;;3.72;;
80381;SDS011;69692;55.820;37.490;2023-04-25T21:12:40;5.55;;;2.88;;
80381;SDS011;69692;55.820;37.490;2023-04-25T21:15:08;7.82;;;2.47;;
80381;SDS011;69692;55.820;37.490;2023-04-25T21:17:36;5.10;;;2.17;;
80381;SDS011;69692;55.820;37.490;2023-04-25T21:20:02;3.78;;;2.10;;
80381;SDS011;69692;55.820;37.490;2023-04-25T21:22:34;5.25;;;2.35;;
80381;SDS011;69692;55.820;37.490;2023-04-25T21:25:00;4.82;;;2.13;;
80381;SDS011;69692;55.820;37.490;2023-04-25T21:27:33;7.60;;;2.30;;
80381;SDS011;69692;55.820;37.490;2023-04-25T21:29:59;6.90;;;2.30;;
80381;SDS011;69692;55.820;37.490;2023-04-25T21:32:25;6.05;;;2.58;;
80381;SDS011;69692;55.820;37.490;2023-04-25T21:34:51;3.80;;;2.53;;
80381;SDS011;69692;55.820;37.490;2023-04-25T21:37:17;6.60;;;2.90;;
80381;SDS011;69692;55.820;37.490;2023-04-25T21:39:43;4.82;;;2.92;;
80381;SDS011;69692;55.820;37.490;2023-04-25T21:42:08;8.20;;;2.92;;
80381;SDS011;69692;55.820;37.490;2023-04-25T21:44:35;6.47;;;2.72;;
80381;SDS011;69692;55.820;37.490;2023-04-25T21:47:01;5.63;;;3.05;;
80381;SDS011;69692;55.820;37.490;2023-04-25T21:49:27;6.63;;;2.45;;
80381;SDS011;69692;55.820;37.490;2023-04-25T21:51:54;6.90;;;3.72;;
80381;SDS011;69692;55.820;37.490;2023-04-25T21:54:20;6.10;;;3.05;;
80381;SDS011;69692;55.820;37.490;2023-04-25T21:56:46;5.95;;;3.72;;
80381;SDS011;69692;55.820;37.490;2023-04-25T21:59:12;4.13;;;2.45;;
80381;SDS011;69692;55.820;37.490;2023-04-25T22:01:38;11.27;;;3.53;;
80381;SDS011;69692;55.820;37.490;2023-04-25T22:04:04;4.40;;;2.42;;
80381;SDS011;69692;55.820;37.490;2023-04-25T22:06:29;7.22;;;3.45;;
80381;SDS011;69692;55.820;37.490;2023-04-25T22:08:56;5.25;;;3.42;;
80381;SDS011;69692;55.820;37.490;2023-04-25T22:11:22;5.95;;;3.35;;
80381;SDS011;69692;55.820;37.490;2023-04-25T22:13:49;4.93;;;3.03;;
80381;SDS011;69692;55.820;37.490;2023-04-25T22:16:15;6.20;;;3.08;;
80381;SDS011;69692;55.820;37.490;2023-04-25T22:18:41;7.57;;;3.30;;
80381;SDS011;69692;55.820;37.490;2023-04-25T22:21:10;6.35;;;3.67;;
80381;SDS011;69692;55.820;37.490;2023-04-25T22:23:36;6.15;;;2.80;;
80381;SDS011;69692;55.820;37.490;2023-04-25T22:26:02;7.07;;;3.30;;
80381;SDS011;69692;55.820;37.490;2023-04-25T22:28:28;6.60;;;3.25;;
80381;SDS011;69692;55.820;37.490;2023-04-25T22:30:54;5.95;;;3.20;;
80381;SDS011;69692;55.820;37.490;2023-04-25T22:33:20;5.28;;;3.03;;
80381;SDS011;69692;55.820;37.490;2023-04-25T22:35:46;4.50;;;2.78;;
80381;SDS011;69692;55.820;37.490;2023-04-25T22:38:12;4.75;;;3.40;;
80381;SDS011;69692;55.820;37.490;2023-04-25T22:40:37;6.38;;;3.80;;
80381;SDS011;69692;55.820;37.490;2023-04-25T22:43:03;5.97;;;3.70;;
80381;SDS011;69692;55.820;37.490;2023-04-25T22:45:29;5.05;;;3.60;;
80381;SDS011;69692;55.820;37.490;2023-04-25T22:47:56;6.72;;;4.35;;
80381;SDS011;69692;55.820;37.490;2023-04-25T22:50:21;6.78;;;4.13;;
80381;SDS011;69692;55.820;37.490;2023-04-25T22:52:47;8.85;;;5.40;;
80381;SDS011;69692;55.820;37.490;2023-04-25T22:55:13;7.35;;;4.80;;
80381;SDS011;69692;55.820;37.490;2023-04-25T22:57:39;6.40;;;4.57;;
80381;SDS011;69692;55.820;37.490;2023-04-25T23:00:06;6.05;;;5.03;;
80381;SDS011;69692;55.820;37.490;2023-04-25T23:02:39;6.93;;;4.65;;
80381;SDS011;69692;55.820;37.490;2023-04-25T23:05:06;6.85;;;4.32;;
80381;SDS011;69692;55.820;37.490;2023-04-25T23:07:31;7.85;;;4.97;;
80381;SDS011;69692;55.820;37.490;2023-04-25T23:09:58;7.20;;;4.22;;
80381;SDS011;69692;55.820;37.490;2023-04-25T23:12:24;6.80;;;4.43;;
80381;SDS011;69692;55.820;37.490;2023-04-25T23:14:49;7.45;;;4.50;;
80381;SDS011;69692;55.820;37.490;2023-04-25T23:17:16;6.43;;;4.13;;
80381;SDS011;69692;55.820;37.490;2023-04-25T23:19:42;8.55;;;4.85;;
80381;SDS011;69692;55.820;37.490;2023-04-25T23:22:09;7.85;;;4.60;;
80381;SDS011;69692;55.820;37.490;2023-04-25T23:24:35;7.13;;;4.68;;
80381;SDS011;69692;55.820;37.490;2023-04-25T23:27:04;6.30;;;4.60;;
80381;SDS011;69692;55.820;37.490;2023-04-25T23:29:30;5.93;;;4.07;;
80381;SDS011;69692;55.820;37.490;2023-04-25T23:31:58;6.03;;;4.03;;
80381;SDS011;69692;55.820;37.490;2023-04-25T23:34:29;9.40;;;5.50;;
80381;SDS011;69692;55.820;37.490;2023-04-25T23:36:55;7.68;;;4.43;;
80381;SDS011;69692;55.820;37.490;2023-04-25T23:39:22;7.63;;;4.57;;
80381;SDS011;69692;55.820;37.490;2023-04-25T23:41:48;5.65;;;4.28;;
80381;SDS011;69692;55.820;37.490;2023-04-25T23:44:14;7.13;;;4.90;;
80381;SDS011;69692;55.820;37.490;2023-04-25T23:46:41;11.02;;;5.10;;
80381;SDS011;69692;55.820;37.490;2023-04-25T23:49:06;8.65;;;5.25;;
80381;SDS011;69692;55.820;37.490;2023-04-25T23:51:32;7.53;;;4.93;;
80381;SDS011;69692;55.820;37.490;2023-04-25T23:53:58;8.18;;;4.38;;
80381;SDS011;69692;55.820;37.490;2023-04-25T23:56:23;8.75;;;4.65;;
80381;SDS011;69692;55.820;37.490;2023-04-25T23:58:49;6.25;;;4.72;;
